Terminal Aerodrome Forecast
Issued by NWS

Home | Current Version | Previous Version | Text Only | Print | Product List | Glossary On
Versions: 1 2 3 4 5 6 7 8 9 10 11 12 13 14 15 16 17 18
000
FTUS44 KSJT 071300 AAA
TAFSOA
TAF AMD
KSOA 071309Z 0713/0812 18012G18KT P6SM BKN015
     FM071400 17011KT P6SM VCSH SCT030 BKN200
      TEMPO 0714/0716 2SM +SHRA BKN025
     FM072000 17012KT P6SM -SHRA VCTS BKN040CB
     FM080100 16010KT P6SM VCSH BKN040
     FM080400 16009KT P6SM OVC025=

USA.gov is the U.S. government's official web portal to all federal, state and local government web resources and services.